Time;durP1;ratioP1;P1;durP2;ratioP2;P2;SDS_P1;SDS_P2;PMS_P1;PMS_P2;Temp;Humidity;BMP_temperature;BMP_pressure;BME280_temperature;BME280_humidity;BME280_pressure;Samples;Min_cycle;Max_cycle;Signal;HPM_P1;HPM_P2
2022/06/01 00:00:54;;;;;;;10.40;7.65;;;11.00;99.90;;;;;;5016554;28;20061;-71
2022/06/01 00:03:21;;;;;;;9.43;7.53;;;11.10;99.90;;;;;;4997081;28;20068;-72
2022/06/01 00:05:46;;;;;;;;;;;11.10;99.90;;;;;;5033334;28;20131;-72
2022/06/01 00:08:12;;;;;;;10.90;8.02;;;11.10;99.90;;;;;;5034074;28;19964;-73
2022/06/01 00:10:38;;;;;;;9.55;7.18;;;11.00;99.90;;;;;;4997283;28;20053;-75
2022/06/01 00:13:03;;;;;;;11.15;7.82;;;11.00;99.90;;;;;;5034051;28;20055;-71
2022/06/01 00:15:30;;;;;;;11.93;7.68;;;10.90;99.90;;;;;;5033873;28;20060;-71
2022/06/01 00:17:58;;;;;;;11.02;8.90;;;11.00;99.90;;;;;;5033968;28;20049;-73
2022/06/01 00:20:25;;;;;;;11.82;8.48;;;11.30;99.90;;;;;;5033772;28;20136;-72
2022/06/01 00:22:51;;;;;;;12.75;8.85;;;11.00;99.90;;;;;;5033649;28;20041;-71
2022/06/01 00:25:17;;;;;;;14.90;10.13;;;11.00;99.90;;;;;;5033681;28;20037;-73
2022/06/01 00:27:43;;;;;;;12.88;8.73;;;10.90;99.90;;;;;;5033886;28;20089;-71
2022/06/01 00:30:12;;;;;;;11.65;7.90;;;11.10;99.90;;;;;;5033756;28;20085;-74
2022/06/01 00:32:38;;;;;;;10.75;8.68;;;10.90;99.90;;;;;;5016199;28;20041;-71
2022/06/01 00:35:06;;;;;;;12.30;8.85;;;10.90;99.90;;;;;;5033647;28;20486;-71
2022/06/01 00:37:31;;;;;;;12.30;8.90;;;10.80;99.90;;;;;;5015950;28;20050;-71
2022/06/01 00:39:57;;;;;;;9.90;8.60;;;11.20;99.90;;;;;;5015875;28;20067;-71
2022/06/01 00:42:26;;;;;;;13.02;8.82;;;10.80;99.90;;;;;;5033574;28;20526;-70
2022/06/01 00:44:53;;;;;;;16.05;10.50;;;10.90;99.90;;;;;;5033508;28;20104;-71
2022/06/01 00:47:24;;;;;;;11.95;9.02;;;10.80;99.90;;;;;;5032328;28;20474;-71
2022/06/01 00:50:12;;;;;;;11.60;9.20;;;11.10;99.90;;;;;;5015749;28;20049;-71
2022/06/01 00:52:45;;;;;;;11.00;9.00;;;10.80;99.90;;;;;;5033232;28;20091;-71
2022/06/01 00:55:21;;;;;;;10.00;8.05;;;10.80;99.90;;;;;;5033165;28;20033;-71
2022/06/01 00:57:50;;;;;;;12.98;8.95;;;10.70;99.90;;;;;;5033276;28;20046;-75
2022/06/01 01:00:22;;;;;;;10.38;8.18;;;11.90;99.90;;;;;;5032231;28;20180;-72
2022/06/01 01:02:49;;;;;;;13.90;9.15;;;10.70;99.90;;;;;;5032827;28;20053;-71
2022/06/01 01:05:16;;;;;;;10.60;8.20;;;10.70;99.90;;;;;;5033025;28;20042;-72
2022/06/01 01:07:43;;;;;;;14.38;9.40;;;11.10;99.90;;;;;;5015914;28;20107;-70
2022/06/01 01:10:11;;;;;;;13.85;9.57;;;10.70;99.90;;;;;;5015451;28;20049;-71
2022/06/01 01:12:56;;;;;;;12.13;8.45;;;10.70;99.90;;;;;;5033147;28;20433;-71
2022/06/01 01:15:24;;;;;;;11.85;9.45;;;10.70;99.90;;;;;;5032554;28;20577;-73
2022/06/01 01:17:52;;;;;;;12.55;9.77;;;10.70;99.90;;;;;;5032793;28;20052;-71
2022/06/01 01:20:19;;;;;;;11.13;8.90;;;10.70;99.90;;;;;;5033121;28;20098;-71
2022/06/01 01:22:50;;;;;;;;;;;10.70;99.90;;;;;;5016147;28;20056;-71
2022/06/01 01:25:40;;;;;;;12.82;9.25;;;10.60;99.90;;;;;;5033111;28;20316;-70
2022/06/01 01:28:07;;;;;;;16.48;9.27;;;11.40;99.90;;;;;;5032864;28;20398;-71
2022/06/01 01:30:46;;;;;;;12.95;9.75;;;10.70;99.90;;;;;;5032873;28;20056;-71
2022/06/01 01:33:23;;;;;;;12.43;9.88;;;10.60;99.90;;;;;;5032941;28;20052;-73
2022/06/01 01:35:52;;;;;;;14.20;9.05;;;10.90;99.90;;;;;;5032670;28;20053;-74
2022/06/01 01:38:44;;;;;;;12.68;9.73;;;11.10;99.90;;;;;;5032854;28;20046;-72
2022/06/01 01:41:24;;;;;;;14.82;10.02;;;10.60;99.90;;;;;;5015159;28;20563;-71
2022/06/01 01:43:59;;;;;;;13.82;9.73;;;10.70;99.90;;;;;;5015073;28;20115;-71
2022/06/01 01:46:27;;;;;;;14.00;10.25;;;10.70;99.90;;;;;;5032936;28;20160;-73
2022/06/01 01:48:53;;;;;;;13.43;10.30;;;10.80;99.90;;;;;;5032851;28;20050;-71
2022/06/01 01:51:21;;;;;;;18.10;12.40;;;10.60;99.90;;;;;;5015197;28;20053;-71
2022/06/01 01:53:47;;;;;;;15.57;10.82;;;10.60;99.90;;;;;;5032760;28;20102;-70
2022/06/01 01:56:36;;;;;;;15.10;11.75;;;11.20;99.90;;;;;;5032468;28;20124;-73
2022/06/01 01:59:11;;;;;;;14.73;10.52;;;10.70;99.90;;;;;;5032670;28;20058;-74
2022/06/01 02:02:01;;;;;;;14.05;10.52;;;10.70;99.90;;;;;;5032280;28;20061;-70
2022/06/01 02:07:33;;;;;;;15.70;10.57;;;10.60;99.90;;;;;;5032528;28;20511;-70
2022/06/01 02:12:44;;;;;;;16.67;11.88;;;10.70;99.90;;;;;;5015205;28;20076;-71
2022/06/01 02:15:17;;;;;;;16.88;12.65;;;11.00;99.90;;;;;;5032711;28;20491;-71
2022/06/01 02:17:50;;;;;;;14.57;11.15;;;10.60;99.90;;;;;;5032580;28;20085;-72
2022/06/01 02:20:32;;;;;;;14.77;10.93;;;10.60;99.90;;;;;;5032290;28;20045;-71
2022/06/01 02:22:59;;;;;;;14.68;11.20;;;10.60;99.90;;;;;;5032438;28;20041;-71
2022/06/01 02:25:25;;;;;;;14.65;11.18;;;10.60;99.90;;;;;;5032460;28;20410;-73
2022/06/01 02:27:52;;;;;;;;;;;11.20;99.90;;;;;;5036364;28;20045;-73
2022/06/01 02:30:29;;;;;;;16.08;12.85;;;10.70;99.90;;;;;;5036011;28;20360;-73
2022/06/01 02:32:57;;;;;;;14.95;10.68;;;11.60;99.90;;;;;;5018023;28;20085;-71
2022/06/01 02:35:24;;;;;;;19.85;11.75;;;10.60;99.90;;;;;;5035776;28;20041;-73
2022/06/01 02:37:54;;;;;;;14.63;10.60;;;10.60;99.90;;;;;;5036007;28;20081;-72
2022/06/01 02:40:22;;;;;;;17.45;10.88;;;11.30;99.90;;;;;;5035763;28;20090;-71
2022/06/01 02:42:51;;;;;;;12.95;10.35;;;10.60;99.90;;;;;;5035707;28;20474;-71
2022/06/01 02:45:20;;;;;;;15.82;10.93;;;10.60;99.90;;;;;;5035715;28;20054;-71
2022/06/01 02:47:46;;;;;;;19.60;12.02;;;10.60;99.90;;;;;;5035625;28;20061;-74
2022/06/01 02:50:16;;;;;;;14.57;11.52;;;10.80;99.90;;;;;;5035389;28;20042;-71
2022/06/01 02:52:44;;;;;;;15.68;11.20;;;10.60;99.90;;;;;;5035650;28;20072;-70
2022/06/01 02:55:12;;;;;;;14.85;11.23;;;10.60;99.90;;;;;;5017989;28;20047;-71
2022/06/01 02:57:40;;;;;;;18.48;11.90;;;10.60;99.90;;;;;;5035469;28;20107;-71
2022/06/01 03:00:17;;;;;;;17.58;12.75;;;10.50;99.90;;;;;;5017894;28;20037;-71
2022/06/01 03:02:51;;;;;;;20.63;13.27;;;10.60;99.90;;;;;;5035055;28;20123;-71
2022/06/01 03:05:18;;;;;;;19.75;13.23;;;10.60;99.90;;;;;;5035398;28;20478;-71
2022/06/01 03:07:44;;;;;;;18.27;13.02;;;10.50;99.90;;;;;;5035381;28;20045;-71
2022/06/01 03:10:10;;;;;;;17.50;13.75;;;10.60;99.90;;;;;;5035124;28;20478;-71
2022/06/01 03:12:38;;;;;;;16.88;12.70;;;11.60;99.90;;;;;;5035243;28;20054;-72
2022/06/01 03:15:06;;;;;;;19.35;13.50;;;10.50;99.90;;;;;;5017512;28;20044;-70
2022/06/01 03:17:32;;;;;;;18.95;13.77;;;10.50;99.90;;;;;;5035383;28;20041;-72
2022/06/01 03:19:58;;;;;;;21.65;14.90;;;10.50;99.90;;;;;;5035087;28;20053;-74
2022/06/01 03:22:24;;;;;;;21.17;14.32;;;10.60;99.90;;;;;;5035128;28;20075;-71
2022/06/01 03:24:50;;;;;;;19.80;15.10;;;10.70;99.90;;;;;;5034686;28;20045;-71
2022/06/01 03:27:17;;;;;;;19.92;14.05;;;10.50;99.90;;;;;;5034854;28;20050;-70
2022/06/01 03:29:43;;;;;;;20.08;14.77;;;10.50;99.90;;;;;;5017432;28;20056;-72
2022/06/01 03:32:09;;;;;;;;;;;11.10;99.90;;;;;;5035005;28;20103;-71
2022/06/01 03:34:34;;;;;;;19.52;13.65;;;10.70;99.90;;;;;;5034969;28;19921;-72
2022/06/01 03:37:00;;;;;;;19.23;14.02;;;10.50;99.90;;;;;;5034282;28;20179;-72
2022/06/01 03:39:26;;;;;;;18.50;13.15;;;10.50;99.90;;;;;;5034746;28;20187;-71
2022/06/01 03:41:51;;;;;;;21.45;14.35;;;10.50;99.90;;;;;;5034594;28;20474;-70
2022/06/01 03:47:09;;;;;;;19.05;13.80;;;10.40;99.90;;;;;;5034354;28;20056;-71
2022/06/01 03:49:35;;;;;;;20.73;14.57;;;10.40;99.90;;;;;;5034663;28;20049;-71
2022/06/01 03:52:00;;;;;;;19.08;14.05;;;10.40;99.90;;;;;;5034564;28;20505;-71
2022/06/01 03:54:26;;;;;;;18.85;12.95;;;10.60;99.90;;;;;;5034389;28;20048;-71
2022/06/01 03:56:51;;;;;;;19.17;14.30;;;10.40;99.90;;;;;;5034230;28;20163;-71
2022/06/01 03:59:17;;;;;;;19.48;14.23;;;10.40;99.90;;;;;;5034227;28;20068;-70
2022/06/01 04:01:43;;;;;;;18.13;13.05;;;10.50;99.90;;;;;;5033817;28;20452;-71
2022/06/01 04:04:08;;;;;;;18.27;13.30;;;10.30;99.90;;;;;;5016782;28;20084;-72
2022/06/01 04:06:34;;;;;;;17.55;13.80;;;10.30;99.90;;;;;;5034043;28;20134;-73
2022/06/01 04:09:00;;;;;;;19.17;14.10;;;10.40;99.90;;;;;;5034032;28;20053;-70
2022/06/01 04:11:26;;;;;;;20.00;14.18;;;10.50;99.90;;;;;;5033972;28;20041;-71
2022/06/01 04:13:51;;;;;;;20.05;14.07;;;10.40;99.90;;;;;;5034004;28;20044;-71
2022/06/01 04:16:19;;;;;;;20.02;14.07;;;10.40;99.90;;;;;;5033901;28;20052;-71
2022/06/01 04:18:45;;;;;;;20.65;14.30;;;10.40;99.90;;;;;;5033968;28;20512;-71
2022/06/01 04:21:12;;;;;;;18.38;14.00;;;10.40;99.90;;;;;;5033703;28;20041;-70
2022/06/01 04:23:37;;;;;;;;;;;10.50;99.90;;;;;;5034334;28;20045;-71
2022/06/01 04:26:03;;;;;;;16.02;14.07;;;10.40;99.90;;;;;;5033543;28;20445;-70
2022/06/01 04:28:29;;;;;;;23.40;15.13;;;10.80;99.90;;;;;;5034167;28;20053;-71
2022/06/01 04:30:54;;;;;;;18.15;14.13;;;10.40;99.90;;;;;;5033621;28;20044;-70
2022/06/01 04:33:20;;;;;;;20.77;15.43;;;11.40;99.90;;;;;;5033823;28;20084;-70
2022/06/01 04:35:46;;;;;;;21.00;14.63;;;10.40;99.90;;;;;;5033743;28;20048;-72
2022/06/01 04:38:15;;;;;;;20.15;14.52;;;10.40;99.90;;;;;;5033697;28;20038;-71
2022/06/01 04:40:46;;;;;;;22.45;14.50;;;9.90;99.90;;;;;;5033509;28;20045;-70
2022/06/01 04:43:14;;;;;;;22.17;14.95;;;10.90;99.90;;;;;;5033536;28;20405;-69
2022/06/01 04:45:40;;;;;;;20.13;15.20;;;10.50;99.90;;;;;;5015919;28;20156;-72
2022/06/01 04:48:06;;;;;;;22.95;14.77;;;10.50;99.90;;;;;;5033425;28;20192;-73
2022/06/01 04:50:31;;;;;;;21.45;15.70;;;10.90;99.90;;;;;;5033154;28;20041;-73
2022/06/01 04:52:58;;;;;;;21.10;15.52;;;10.60;99.90;;;;;;5033474;28;20045;-74
2022/06/01 04:55:23;;;;;;;;;;;10.60;99.90;;;;;;5016103;28;20045;-71
2022/06/01 04:57:49;;;;;;;24.25;17.52;;;10.60;99.90;;;;;;5015915;28;19921;-71
2022/06/01 05:00:15;;;;;;;20.90;15.95;;;10.60;99.90;;;;;;5033217;28;20230;-72
2022/06/01 05:02:42;;;;;;;19.95;14.95;;;10.60;99.90;;;;;;5033496;28;20107;-70
2022/06/01 05:05:09;;;;;;;19.10;15.35;;;10.60;99.90;;;;;;5033302;28;20502;-71
2022/06/01 05:07:34;;;;;;;20.20;15.15;;;10.70;99.90;;;;;;5033268;28;20095;-74
2022/06/01 05:10:00;;;;;;;18.40;15.18;;;10.70;99.90;;;;;;5033200;28;20041;-72
2022/06/01 05:12:26;;;;;;;22.52;15.65;;;10.70;99.90;;;;;;5033084;28;20132;-70
2022/06/01 05:14:51;;;;;;;20.80;15.48;;;10.80;99.90;;;;;;5033164;28;20115;-71
2022/06/01 05:17:17;;;;;;;18.17;14.38;;;11.40;99.90;;;;;;5033067;28;20045;-71
2022/06/01 05:19:43;;;;;;;21.05;16.27;;;10.90;99.90;;;;;;5033279;28;20045;-72
2022/06/01 05:22:08;;;;;;;23.08;16.40;;;10.80;99.90;;;;;;5033119;28;20397;-71
2022/06/01 05:24:34;;;;;;;22.00;16.03;;;11.00;99.90;;;;;;5032426;28;20095;-71
2022/06/01 05:27:00;;;;;;;22.02;17.33;;;10.80;99.90;;;;;;5025398;28;20292;-71
2022/06/01 05:29:25;;;;;;;23.63;18.38;;;10.90;99.90;;;;;;5032889;28;20045;-71
2022/06/01 05:31:51;;;;;;;24.15;16.60;;;10.90;99.90;;;;;;5032752;28;20033;-71
2022/06/01 05:34:17;;;;;;;25.15;17.60;;;11.00;99.90;;;;;;5033062;28;20130;-72
2022/06/01 05:36:42;;;;;;;21.55;16.63;;;10.90;99.90;;;;;;5032779;28;20041;-71
2022/06/01 05:39:08;;;;;;;23.77;17.60;;;11.00;99.90;;;;;;5033012;28;20045;-70
2022/06/01 05:41:33;;;;;;;21.33;16.73;;;11.50;99.90;;;;;;5032760;28;20296;-70
2022/06/01 05:43:59;;;;;;;22.90;16.35;;;11.00;99.90;;;;;;5032859;28;20056;-73
2022/06/01 05:46:26;;;;;;;19.92;15.98;;;11.10;99.90;;;;;;5015365;28;20057;-71
2022/06/01 05:48:52;;;;;;;22.90;17.38;;;11.10;99.90;;;;;;5032663;28;20096;-71
2022/06/01 05:51:18;;;;;;;20.88;15.68;;;11.10;99.90;;;;;;5032935;28;20041;-71
2022/06/01 05:53:44;;;;;;;23.73;17.02;;;11.10;99.90;;;;;;5032893;28;20136;-70
2022/06/01 05:56:10;;;;;;;26.80;17.67;;;11.10;99.90;;;;;;5032598;28;20509;-71
2022/06/01 05:58:36;;;;;;;23.73;16.40;;;11.10;99.90;;;;;;5032800;28;20083;-72
2022/06/01 06:01:07;;;;;;;22.38;16.83;;;11.30;99.90;;;;;;5034789;28;20053;-72
2022/06/01 06:03:33;;;;;;;26.58;16.58;;;11.10;99.90;;;;;;5036201;28;20052;-71
2022/06/01 06:06:14;;;;;;;23.98;17.05;;;11.20;99.90;;;;;;5036372;28;20052;-71
2022/06/01 06:08:42;;;;;;;21.63;16.65;;;11.10;99.90;;;;;;5002578;28;20037;-71
2022/06/01 06:11:08;;;;;;;21.65;16.48;;;11.10;99.90;;;;;;5002491;28;20050;-71
2022/06/01 06:13:34;;;;;;;27.33;17.45;;;11.20;99.90;;;;;;5036258;28;20046;-70
2022/06/01 06:16:00;;;;;;;;;;;11.10;99.90;;;;;;5035517;28;20045;-73
2022/06/01 06:18:26;;;;;;;21.83;17.40;;;11.20;99.90;;;;;;5036333;28;19921;-70
2022/06/01 06:20:52;;;;;;;23.83;17.35;;;11.10;99.90;;;;;;5036123;28;20045;-71
2022/06/01 06:23:18;;;;;;;23.85;16.15;;;12.30;99.90;;;;;;5036102;28;20413;-71
2022/06/01 06:25:43;;;;;;;24.40;17.30;;;11.50;99.90;;;;;;5036157;28;20478;-71
2022/06/01 06:28:10;;;;;;;22.75;17.10;;;11.50;99.90;;;;;;5035991;28;20051;-72
2022/06/01 06:30:37;;;;;;;23.38;17.50;;;11.20;99.90;;;;;;5035674;28;20057;-70
2022/06/01 06:33:03;;;;;;;19.90;16.63;;;11.20;99.90;;;;;;5035852;28;20049;-71
2022/06/01 06:35:28;;;;;;;22.35;16.50;;;11.20;99.90;;;;;;5035998;28;20046;-70
2022/06/01 06:37:54;;;;;;;25.17;17.05;;;11.20;99.90;;;;;;5010253;28;20122;-70
2022/06/01 06:40:35;;;;;;;22.60;17.02;;;11.50;99.90;;;;;;5035705;28;20041;-72
2022/06/01 06:43:01;;;;;;;24.02;16.90;;;11.20;99.90;;;;;;5035698;28;20049;-73
2022/06/01 06:45:26;;;;;;;22.67;17.15;;;11.20;99.90;;;;;;5017761;28;20051;-72
2022/06/01 06:47:52;;;;;;;22.58;15.63;;;11.50;99.90;;;;;;5035873;28;20115;-72
2022/06/01 06:50:19;;;;;;;23.00;16.75;;;11.80;99.90;;;;;;5035576;28;20046;-73
2022/06/01 06:52:45;;;;;;;23.05;16.00;;;11.30;99.90;;;;;;5035676;28;20417;-70
2022/06/01 06:55:11;;;;;;;20.80;16.20;;;11.30;99.90;;;;;;5035565;28;20045;-71
2022/06/01 06:57:37;;;;;;;21.77;15.75;;;11.30;99.90;;;;;;5035519;28;20068;-71
2022/06/01 07:00:08;;;;;;;25.85;17.38;;;11.30;99.90;;;;;;5017617;28;20051;-70
2022/06/01 07:02:35;;;;;;;22.98;15.98;;;11.30;99.90;;;;;;5035159;28;20142;-70
2022/06/01 07:05:05;;;;;;;21.73;16.30;;;11.50;99.90;;;;;;5017892;28;20111;-71
2022/06/01 07:07:31;;;;;;;21.17;15.60;;;11.30;99.90;;;;;;5035235;28;20140;-74
2022/06/01 07:09:57;;;;;;;19.80;14.93;;;11.40;99.90;;;;;;5035298;28;20049;-73
2022/06/01 07:12:23;;;;;;;21.77;15.85;;;11.40;99.90;;;;;;5034472;28;20203;-73
2022/06/01 07:14:48;;;;;;;19.67;15.27;;;11.30;99.90;;;;;;5034967;28;20541;-70
2022/06/01 07:17:14;;;;;;;22.85;16.95;;;11.30;99.90;;;;;;5035154;28;20068;-69
2022/06/01 07:19:39;;;;;;;21.50;17.58;;;11.40;99.90;;;;;;5034961;28;20482;-71
2022/06/01 07:22:05;;;;;;;20.77;15.43;;;11.40;99.90;;;;;;5017039;28;20057;-75
2022/06/01 07:24:31;;;;;;;22.90;16.52;;;11.50;99.90;;;;;;5034739;28;20057;-72
2022/06/01 07:26:56;;;;;;;28.70;17.85;;;11.60;99.90;;;;;;5026815;28;20123;-71
2022/06/01 07:29:22;;;;;;;22.60;15.85;;;11.40;99.90;;;;;;5017137;28;20060;-71
2022/06/01 07:31:50;;;;;;;22.17;16.65;;;11.50;99.90;;;;;;5034638;28;20047;-71
2022/06/01 07:34:16;;;;;;;27.83;17.10;;;11.50;99.90;;;;;;5017272;28;20061;-72
2022/06/01 07:36:43;;;;;;;22.50;15.80;;;11.50;99.90;;;;;;5034829;28;20048;-71
2022/06/01 07:44:49;;;;;;;22.40;15.45;;;11.50;99.90;;;;;;5034530;28;20492;-71
2022/06/01 07:47:16;;;;;;;21.30;15.57;;;11.50;99.90;;;;;;5034576;28;20522;-73
2022/06/01 07:49:42;;;;;;;21.45;15.57;;;11.50;99.90;;;;;;5014997;28;20081;-71
2022/06/01 07:52:09;;;;;;;24.50;16.08;;;12.10;99.90;;;;;;5016946;28;20089;-70
2022/06/01 07:54:42;;;;;;;21.50;15.68;;;11.50;99.90;;;;;;5034123;28;20087;-71
2022/06/01 07:57:09;;;;;;;22.38;15.63;;;11.60;99.90;;;;;;5034407;28;20147;-70
2022/06/01 07:59:35;;;;;;;21.98;15.88;;;11.50;99.90;;;;;;5016983;28;20051;-70
2022/06/01 08:02:05;;;;;;;20.73;14.60;;;11.50;99.90;;;;;;5034113;28;20057;-71
2022/06/01 08:04:31;;;;;;;22.23;15.75;;;11.60;99.90;;;;;;5034094;28;20045;-73
2022/06/01 08:06:56;;;;;;;20.92;15.23;;;11.60;99.90;;;;;;5034112;28;20565;-71
2022/06/01 08:09:23;;;;;;;21.67;14.15;;;11.70;99.90;;;;;;5034102;28;20107;-72
2022/06/01 08:14:35;;;;;;;21.08;14.85;;;12.90;99.90;;;;;;5033899;28;19928;-71
2022/06/01 08:17:02;;;;;;;22.92;16.02;;;11.70;99.90;;;;;;5012232;28;20058;-71
2022/06/01 08:19:27;;;;;;;24.88;15.40;;;11.70;99.90;;;;;;5045695;28;20533;-70
2022/06/01 08:21:53;;;;;;;20.50;14.98;;;11.80;99.90;;;;;;5032290;28;20125;-71
2022/06/01 08:24:19;;;;;;;21.52;14.95;;;11.80;99.90;;;;;;5033112;28;20045;-70
2022/06/01 08:26:44;;;;;;;21.85;15.48;;;11.90;99.90;;;;;;5033798;28;20092;-70
2022/06/01 08:29:10;;;;;;;17.67;13.50;;;11.90;99.90;;;;;;5034054;28;20053;-72
2022/06/01 08:31:36;;;;;;;22.83;15.00;;;12.00;99.90;;;;;;5033627;28;20038;-70
2022/06/01 08:34:04;;;;;;;24.58;16.33;;;12.00;99.90;;;;;;5033669;28;20049;-73
2022/06/01 08:36:31;;;;;;;18.73;13.70;;;12.00;99.90;;;;;;5033581;28;20053;-70
2022/06/01 08:38:58;;;;;;;17.67;13.57;;;12.10;99.90;;;;;;5013874;28;20057;-71
2022/06/01 08:41:30;;;;;;;15.57;11.60;;;12.10;99.90;;;;;;5033579;28;20124;-70
2022/06/01 08:44:01;;;;;;;16.15;11.73;;;12.20;99.90;;;;;;5033545;28;20053;-71
2022/06/01 08:46:29;;;;;;;16.60;12.40;;;12.20;99.90;;;;;;5033465;28;20048;-70
2022/06/01 08:49:14;;;;;;;13.10;9.95;;;12.20;99.90;;;;;;5033462;28;20041;-71
2022/06/01 08:51:39;;;;;;;12.40;8.98;;;12.30;99.90;;;;;;5031962;28;20402;-72
2022/06/01 08:54:05;;;;;;;10.48;8.32;;;12.30;99.90;;;;;;5033481;28;20057;-72
2022/06/01 08:56:42;;;;;;;11.35;7.53;;;12.30;99.90;;;;;;5033398;28;20118;-70
2022/06/01 08:59:28;;;;;;;12.55;9.00;;;12.40;99.90;;;;;;5033297;28;20045;-70
2022/06/01 09:02:12;;;;;;;12.82;8.88;;;12.40;99.90;;;;;;4971697;28;20089;-73
2022/06/01 09:04:47;;;;;;;12.65;8.63;;;12.50;99.90;;;;;;4972237;28;20392;-71
2022/06/01 09:07:29;;;;;;;13.90;9.52;;;12.50;99.90;;;;;;4972239;28;20059;-71
2022/06/01 09:10:16;;;;;;;13.82;8.38;;;12.60;99.90;;;;;;4956186;28;20062;-72
2022/06/01 09:12:43;;;;;;;11.30;7.63;;;12.70;99.90;;;;;;4972127;28;20058;-72
2022/06/01 09:15:17;;;;;;;11.52;8.77;;;12.70;99.90;;;;;;4972069;28;20511;-71
2022/06/01 09:17:44;;;;;;;13.75;9.35;;;12.90;99.90;;;;;;4972196;28;20134;-71
2022/06/01 09:23:01;;;;;;;10.70;7.72;;;13.00;99.90;;;;;;4972094;28;20057;-73
2022/06/01 09:25:32;;;;;;;8.98;7.25;;;13.10;99.90;;;;;;4955931;28;20058;-72
2022/06/01 09:28:02;;;;;;;11.13;7.70;;;13.10;99.90;;;;;;4972034;28;20054;-73
2022/06/01 09:30:44;;;;;;;11.32;6.32;;;13.20;99.90;;;;;;4972021;28;20050;-71
2022/06/01 09:33:23;;;;;;;7.40;4.68;;;13.10;99.90;;;;;;4971973;28;20061;-72
2022/06/01 09:36:04;;;;;;;7.75;5.78;;;13.20;99.90;;;;;;4974160;28;20101;-70
2022/06/01 09:38:41;;;;;;;9.05;6.43;;;13.50;99.90;;;;;;4987955;28;20057;-72
2022/06/01 09:41:09;;;;;;;10.68;6.93;;;13.20;99.90;;;;;;4984927;28;20049;-71
2022/06/01 09:43:39;;;;;;;9.30;6.20;;;13.20;99.90;;;;;;5034095;28;20041;-71
2022/06/01 09:46:06;;;;;;;9.27;6.20;;;13.10;99.90;;;;;;5036581;28;20125;-70
2022/06/01 09:48:38;;;;;;;5.45;4.00;;;13.10;99.90;;;;;;5036675;28;20383;-72
2022/06/01 09:51:16;;;;;;;6.28;2.80;;;13.00;99.90;;;;;;5036753;28;20128;-71
2022/06/01 09:53:52;;;;;;;3.83;2.42;;;12.90;99.90;;;;;;5036572;28;20560;-71
2022/06/01 09:56:31;;;;;;;3.22;2.10;;;12.90;99.90;;;;;;5036942;28;20045;-71
2022/06/01 10:07:24;;;;;;;2.17;1.40;;;12.80;99.90;;;;;;5036579;28;20132;-71
2022/06/01 10:09:59;;;;;;;1.33;0.73;;;12.80;99.90;;;;;;5019039;28;20056;-71
2022/06/01 10:12:34;;;;;;;1.40;0.80;;;12.90;99.90;;;;;;5036326;28;20048;-71
2022/06/01 10:15:02;;;;;;;1.77;0.68;;;13.00;99.90;;;;;;5016510;28;20050;-70
2022/06/01 10:17:35;;;;;;;1.38;0.70;;;13.10;99.90;;;;;;5035932;28;20076;-72
2022/06/01 10:20:23;;;;;;;1.08;0.60;;;13.40;99.90;;;;;;5035327;28;20054;-71
2022/06/01 10:23:18;;;;;;;0.85;0.60;;;13.20;99.90;;;;;;5035790;28;20104;-71
2022/06/01 10:25:57;;;;;;;0.93;0.60;;;13.20;99.90;;;;;;5027725;28;20049;-72
2022/06/01 10:28:31;;;;;;;1.00;0.73;;;13.40;99.90;;;;;;5018230;28;20490;-73
2022/06/01 10:31:00;;;;;;;0.80;0.52;;;13.40;99.90;;;;;;5035839;28;20464;-70
2022/06/01 10:33:47;;;;;;;0.70;0.60;;;13.50;99.90;;;;;;5035760;28;20053;-71
2022/06/01 10:36:29;;;;;;;0.95;0.47;;;13.60;99.90;;;;;;5035720;28;20056;-72
2022/06/01 10:39:09;;;;;;;1.20;0.60;;;13.60;99.90;;;;;;5017805;28;20061;-70
2022/06/01 10:41:48;;;;;;;1.10;0.63;;;13.70;99.90;;;;;;5035491;28;20091;-72
2022/06/01 10:44:21;;;;;;;1.13;0.60;;;13.70;99.90;;;;;;5035554;28;20041;-72
2022/06/01 10:46:59;;;;;;;1.25;0.60;;;13.80;99.90;;;;;;5034353;28;20422;-72
2022/06/01 10:49:50;;;;;;;1.30;0.60;;;13.90;99.90;;;;;;5035520;28;20171;-71
2022/06/01 10:52:31;;;;;;;1.08;0.88;;;13.90;99.90;;;;;;5035302;28;20085;-70
2022/06/01 10:55:19;;;;;;;0.98;0.73;;;13.90;99.90;;;;;;5035319;28;20124;-72
2022/06/01 10:57:47;;;;;;;2.25;1.10;;;14.00;99.90;;;;;;5035374;28;20049;-71
2022/06/01 11:00:17;;;;;;;2.28;1.17;;;14.10;99.90;;;;;;5035213;28;20055;-71
2022/06/01 11:03:00;;;;;;;1.17;0.80;;;14.10;99.90;;;;;;5035128;28;20064;-72
2022/06/01 11:06:03;;;;;;;1.77;0.98;;;14.10;99.90;;;;;;5035100;28;20103;-73
2022/06/01 11:08:37;;;;;;;4.57;1.40;;;14.20;99.90;;;;;;5035038;28;20401;-72
2022/06/01 11:11:06;;;;;;;2.45;1.38;;;14.20;99.90;;;;;;5034991;28;20041;-70
2022/06/01 11:13:50;;;;;;;2.17;1.15;;;14.30;99.90;;;;;;5017280;28;20498;-71
2022/06/01 11:16:54;;;;;;;2.10;1.33;;;14.30;99.90;;;;;;5034789;28;20053;-73
2022/06/01 11:19:32;;;;;;;2.13;1.10;;;14.40;99.90;;;;;;5034957;28;20415;-71
2022/06/01 11:22:19;;;;;;;2.28;1.15;;;14.50;99.90;;;;;;5016992;28;20049;-71
2022/06/01 11:25:07;;;;;;;2.67;1.02;;;14.50;99.90;;;;;;5034492;28;20132;-72
2022/06/01 11:27:52;;;;;;;1.38;0.80;;;14.60;99.90;;;;;;5034889;28;20053;-73
2022/06/01 11:30:21;;;;;;;1.85;0.93;;;14.60;99.90;;;;;;5034762;28;20042;-71
2022/06/01 11:32:58;;;;;;;2.33;1.05;;;14.60;99.90;;;;;;5034802;28;20049;-71
2022/06/01 11:35:34;;;;;;;3.38;1.15;;;14.70;99.90;;;;;;5017054;28;20402;-72
2022/06/01 11:38:17;;;;;;;1.25;0.80;;;14.70;99.90;;;;;;5034806;28;20107;-72
2022/06/01 11:40:51;;;;;;;2.78;1.10;;;14.60;99.90;;;;;;5034712;28;20049;-70
2022/06/01 11:43:27;;;;;;;1.50;1.00;;;14.60;99.90;;;;;;5034514;28;20072;-73
2022/06/01 11:46:04;;;;;;;1.05;0.60;;;14.60;99.90;;;;;;5034699;28;20060;-74
2022/06/01 11:48:31;;;;;;;;;;;14.60;99.90;;;;;;5035091;28;20085;-71
2022/06/01 11:51:17;;;;;;;2.15;0.90;;;14.60;99.90;;;;;;5034518;28;19944;-70
2022/06/01 11:54:00;;;;;;;1.55;0.82;;;14.60;99.90;;;;;;5034465;28;20041;-71
2022/06/01 11:56:30;;;;;;;1.83;1.05;;;14.60;99.90;;;;;;5033266;28;20567;-71
2022/06/01 11:59:18;;;;;;;1.25;0.80;;;14.50;99.90;;;;;;5034267;28;20133;-70
2022/06/01 12:01:51;;;;;;;2.35;1.10;;;14.50;99.90;;;;;;5034160;28;20069;-74
2022/06/01 12:04:54;;;;;;;1.63;1.02;;;14.40;99.90;;;;;;5016781;28;20064;-72
2022/06/01 12:07:38;;;;;;;1.20;0.80;;;14.40;99.90;;;;;;5034286;28;20049;-71
2022/06/01 12:10:06;;;;;;;1.30;0.88;;;14.30;99.90;;;;;;5032544;28;20440;-71
2022/06/01 12:12:32;;;;;;;2.40;1.63;;;14.20;99.90;;;;;;5044086;28;20045;-74
2022/06/01 12:15:04;;;;;;;4.00;2.15;;;14.00;99.90;;;;;;5053336;28;20049;-70
2022/06/01 12:17:35;;;;;;;3.03;1.75;;;13.90;99.90;;;;;;5052859;28;20132;-72
2022/06/01 12:20:28;;;;;;;1.92;1.10;;;13.80;99.90;;;;;;5019993;28;20126;-72
2022/06/01 12:29:04;;;;;;;1.00;0.53;;;13.40;99.90;;;;;;5053751;28;20056;-74
2022/06/01 12:31:59;;;;;;;0.98;0.70;;;13.20;99.90;;;;;;5053537;28;20056;-71
2022/06/01 12:34:32;;;;;;;1.15;0.70;;;13.10;99.90;;;;;;5053662;28;20044;-73
2022/06/01 12:37:21;;;;;;;1.80;0.80;;;12.80;99.90;;;;;;5053677;28;20409;-71
2022/06/01 12:39:54;;;;;;;2.97;0.93;;;12.60;99.90;;;;;;5035920;28;20540;-70
2022/06/01 12:42:35;;;;;;;2.20;0.90;;;12.30;99.90;;;;;;5035298;28;20555;-71
2022/06/01 12:45:06;;;;;;;1.00;0.90;;;12.20;99.90;;;;;;5053376;28;20099;-74
2022/06/01 12:47:53;;;;;;;3.60;1.42;;;12.10;99.90;;;;;;5053395;28;20044;-70
2022/06/01 12:50:21;;;;;;;2.58;1.42;;;12.00;99.90;;;;;;5035678;28;20056;-70
2022/06/01 12:52:47;;;;;;;2.28;1.50;;;12.00;99.90;;;;;;5053211;28;20092;-71
2022/06/01 12:55:24;;;;;;;;;;;12.00;99.90;;;;;;5035941;28;20041;-72
2022/06/01 12:58:00;;;;;;;2.92;1.80;;;11.90;99.90;;;;;;5052861;28;20023;-73
2022/06/01 13:00:33;;;;;;;3.90;2.60;;;11.90;99.90;;;;;;5053035;28;20044;-71
2022/06/01 13:02:59;;;;;;;5.43;3.13;;;11.90;99.90;;;;;;5052723;28;20060;-71
2022/06/01 13:05:35;;;;;;;;;;;12.10;99.90;;;;;;5053360;28;20421;-71
2022/06/01 13:08:03;;;;;;;9.98;3.40;;;12.00;99.90;;;;;;5053283;28;19921;-72
2022/06/01 13:10:34;;;;;;;5.05;3.10;;;12.00;99.90;;;;;;5052560;28;20094;-71
2022/06/01 13:13:05;;;;;;;5.00;3.20;;;12.10;99.90;;;;;;5052998;28;20045;-71
2022/06/01 13:15:31;;;;;;;4.70;2.58;;;12.10;99.90;;;;;;5052848;28;20049;-71
2022/06/01 13:18:00;;;;;;;3.58;2.20;;;12.20;99.90;;;;;;5035301;28;20044;-70
2022/06/01 13:20:38;;;;;;;4.00;2.08;;;12.30;99.90;;;;;;5052540;28;20056;-71
2022/06/01 13:23:18;;;;;;;2.38;1.35;;;12.30;99.90;;;;;;5053030;28;20041;-72
2022/06/01 13:25:45;;;;;;;3.15;1.58;;;12.40;99.90;;;;;;5044809;28;20398;-72
2022/06/01 13:28:11;;;;;;;2.15;1.13;;;12.40;99.90;;;;;;5031704;28;20049;-71
2022/06/01 13:30:39;;;;;;;1.30;0.80;;;12.50;99.90;;;;;;5050340;28;20045;-72